Time;durP1;ratioP1;P1;durP2;ratioP2;P2;SDS_P1;SDS_P2;PMS_P1;PMS_P2;Temp;Humidity;BMP_temperature;BMP_pressure;BME280_temperature;BME280_humidity;BME280_pressure;Samples;Min_cycle;Max_cycle;Signal;HPM_P1;HPM_P2
2021/03/22 00:00:58;;;;;;;5.38;4.60;;;5.80;60.20;;;;;;5092697;28;20036;-71
2021/03/22 00:03:25;;;;;;;5.07;4.57;;;5.80;60.20;;;;;;5092971;28;20515;-74
2021/03/22 00:05:52;;;;;;;6.22;4.57;;;5.80;60.10;;;;;;5108063;28;20044;-73
2021/03/22 00:08:19;;;;;;;4.95;4.45;;;5.80;60.10;;;;;;5092731;28;20137;-77
2021/03/22 00:10:47;;;;;;;7.50;5.28;;;5.90;60.20;;;;;;5078562;28;20067;-73
2021/03/22 00:13:14;;;;;;;4.85;4.15;;;5.90;60.10;;;;;;5104437;28;20039;-73
2021/03/22 00:15:41;;;;;;;4.97;4.38;;;5.80;60.10;;;;;;5074580;28;20035;-70
2021/03/22 00:18:11;;;;;;;4.65;4.18;;;5.90;60.10;;;;;;5102075;28;20028;-69
2021/03/22 00:20:38;;;;;;;5.63;4.63;;;5.90;60.00;;;;;;5100626;28;20035;-67
2021/03/22 00:23:04;;;;;;;5.75;4.70;;;5.90;60.00;;;;;;5095568;28;20024;-66
2021/03/22 00:25:30;;;;;;;5.68;4.60;;;5.90;60.00;;;;;;5092818;28;20508;-66
2021/03/22 00:27:56;;;;;;;6.63;4.75;;;5.80;60.10;;;;;;5081695;28;20044;-67
2021/03/22 00:30:27;;;;;;;4.15;3.78;;;5.90;60.10;;;;;;5081183;28;20062;-68
2021/03/22 00:32:53;;;;;;;6.88;4.60;;;5.90;60.00;;;;;;5093202;28;20028;-67
2021/03/22 00:35:19;;;;;;;6.45;4.35;;;5.90;59.90;;;;;;5092750;28;20044;-69
2021/03/22 00:37:47;;;;;;;5.72;4.60;;;5.90;59.90;;;;;;5092743;28;20040;-67
2021/03/22 00:40:14;;;;;;;5.97;4.15;;;5.90;59.90;;;;;;5092399;28;20492;-68
2021/03/22 00:42:41;;;;;;;4.97;4.20;;;5.90;60.00;;;;;;5092858;28;20070;-68
2021/03/22 00:45:08;;;;;;;6.53;4.82;;;5.90;60.00;;;;;;5091992;28;20132;-67
2021/03/22 00:47:34;;;;;;;6.00;4.65;;;5.90;60.00;;;;;;5092322;28;20131;-67
2021/03/22 00:50:03;;;;;;;5.65;4.80;;;5.90;60.10;;;;;;5092400;28;20178;-66
2021/03/22 00:52:30;;;;;;;5.32;4.57;;;5.90;60.20;;;;;;5108404;28;20039;-66
2021/03/22 00:54:56;;;;;;;5.72;4.55;;;5.90;60.10;;;;;;5092837;28;20039;-66
2021/03/22 00:57:22;;;;;;;6.28;4.80;;;5.90;60.10;;;;;;5092252;28;20119;-66
2021/03/22 00:59:48;;;;;;;6.25;4.75;;;5.90;60.10;;;;;;5092409;28;20201;-67
2021/03/22 01:02:14;;;;;;;6.80;4.40;;;5.90;60.10;;;;;;5092627;28;20058;-67
2021/03/22 01:04:40;;;;;;;7.13;5.07;;;5.90;60.10;;;;;;5092529;28;20101;-66
2021/03/22 01:07:06;;;;;;;6.32;4.60;;;5.90;60.10;;;;;;5092288;28;20076;-67
2021/03/22 01:09:32;;;;;;;6.10;4.78;;;5.90;60.20;;;;;;5092848;28;20511;-66
2021/03/22 01:11:58;;;;;;;5.18;4.68;;;5.90;60.20;;;;;;5092283;28;20139;-67
2021/03/22 01:14:25;;;;;;;6.45;4.65;;;5.90;60.10;;;;;;5074409;28;20028;-67
2021/03/22 01:16:52;;;;;;;5.75;4.32;;;5.90;60.20;;;;;;5093142;28;20140;-67
2021/03/22 01:19:24;;;;;;;5.00;4.53;;;5.90;60.10;;;;;;5096120;28;20122;-66
2021/03/22 01:21:58;;;;;;;5.00;4.40;;;5.90;60.10;;;;;;5114507;27;20101;-68
2021/03/22 01:24:26;;;;;;;5.20;4.65;;;5.90;60.00;;;;;;5105123;28;20059;-66
2021/03/22 01:26:58;;;;;;;5.95;4.78;;;5.90;60.10;;;;;;5095886;28;20083;-67
2021/03/22 01:29:30;;;;;;;5.57;4.20;;;5.90;60.00;;;;;;5095904;28;20036;-68
2021/03/22 01:32:00;;;;;;;4.93;4.40;;;5.90;60.00;;;;;;5077517;28;20452;-66
2021/03/22 01:34:28;;;;;;;5.25;4.75;;;5.90;59.90;;;;;;5095997;28;20040;-66
2021/03/22 01:36:56;;;;;;;5.15;4.43;;;5.90;60.00;;;;;;5111203;28;20035;-67
2021/03/22 01:39:29;;;;;;;6.78;4.28;;;6.00;60.00;;;;;;5096176;28;20028;-66
2021/03/22 01:42:13;;;;;;;5.07;4.55;;;6.00;60.00;;;;;;5095489;28;20484;-65
2021/03/22 01:44:50;;;;;;;5.03;4.53;;;5.90;60.00;;;;;;5095501;28;20114;-66
2021/03/22 01:47:33;;;;;;;6.53;5.13;;;5.90;60.00;;;;;;5095597;28;20047;-65
2021/03/22 01:50:14;;;;;;;5.78;4.88;;;5.90;60.10;;;;;;5095855;28;20573;-67
2021/03/22 01:52:43;;;;;;;6.22;5.18;;;5.90;60.00;;;;;;5095498;28;20040;-69
2021/03/22 01:55:12;;;;;;;5.60;4.38;;;5.90;60.00;;;;;;5095089;28;20071;-67
2021/03/22 01:57:43;;;;;;;4.93;4.40;;;6.00;60.10;;;;;;5077077;28;20500;-68
2021/03/22 02:00:15;;;;;;;5.20;4.55;;;5.90;60.00;;;;;;5095218;28;20032;-66
2021/03/22 02:02:44;;;;;;;4.53;3.80;;;6.00;60.10;;;;;;5095410;28;20122;-67
2021/03/22 02:05:15;;;;;;;4.63;3.88;;;5.90;60.20;;;;;;5076917;28;20036;-67
2021/03/22 02:07:42;;;;;;;5.15;4.22;;;5.90;60.20;;;;;;5094834;28;20040;-67
2021/03/22 02:10:09;;;;;;;5.32;4.28;;;6.00;60.20;;;;;;5095123;28;20065;-69
2021/03/22 02:12:36;;;;;;;4.70;4.20;;;5.90;60.60;;;;;;5095038;28;20103;-66
2021/03/22 02:15:03;;;;;;;6.15;4.50;;;5.90;60.60;;;;;;5094986;28;20028;-67
2021/03/22 02:17:56;;;;;;;4.65;4.18;;;5.90;60.70;;;;;;5094971;28;20048;-66
2021/03/22 02:21:21;;;;;;;5.22;4.72;;;5.90;60.70;;;;;;5040494;28;20040;-67
2021/03/22 02:24:34;;;;;;;5.97;4.50;;;5.90;60.90;;;;;;4964393;28;20053;-68
2021/03/22 02:27:13;;;;;;;4.90;4.25;;;6.00;61.00;;;;;;4965202;28;20054;-68
2021/03/22 02:30:02;;;;;;;5.40;4.30;;;5.90;61.00;;;;;;5090351;28;20056;-67
2021/03/22 02:32:51;;;;;;;5.00;4.35;;;5.90;61.00;;;;;;5087883;28;20447;-68
2021/03/22 02:35:31;;;;;;;5.57;4.50;;;5.90;61.00;;;;;;5094477;28;20043;-68
2021/03/22 02:38:27;;;;;;;6.35;4.85;;;6.00;61.20;;;;;;5076824;28;20062;-68
2021/03/22 02:41:02;;;;;;;5.25;4.40;;;5.90;61.20;;;;;;5094550;28;20040;-67
2021/03/22 02:43:33;;;;;;;5.50;4.35;;;5.90;61.10;;;;;;5095023;28;20721;-69
2021/03/22 02:45:59;;;;;;;4.85;4.30;;;5.90;61.10;;;;;;5094704;28;20063;-69
2021/03/22 02:48:28;;;;;;;5.38;4.55;;;5.90;61.20;;;;;;5076050;28;20075;-68
2021/03/22 02:51:25;;;;;;;5.45;4.70;;;5.90;61.20;;;;;;5076194;28;20043;-67
2021/03/22 02:53:51;;;;;;;;;;;5.90;61.10;;;;;;5094544;28;20040;-69
2021/03/22 02:56:24;;;;;;;5.15;4.38;;;5.90;61.10;;;;;;5094315;28;19908;-68
2021/03/22 02:58:57;;;;;;;6.00;5.15;;;5.90;61.10;;;;;;5094574;28;20036;-68
2021/03/22 03:01:42;;;;;;;5.45;4.45;;;5.90;61.10;;;;;;5094159;28;20044;-68
2021/03/22 03:04:12;;;;;;;5.10;4.60;;;5.90;61.10;;;;;;5093746;28;20043;-68
2021/03/22 03:06:59;;;;;;;5.18;4.50;;;5.90;61.10;;;;;;5075656;28;20043;-68
2021/03/22 03:09:30;;;;;;;5.28;4.45;;;5.90;61.10;;;;;;5075916;28;20040;-65
2021/03/22 03:12:07;;;;;;;5.00;4.50;;;5.90;61.10;;;;;;5094168;28;20118;-65
2021/03/22 03:14:33;;;;;;;5.32;4.57;;;5.90;61.10;;;;;;5075838;28;20035;-65
2021/03/22 03:16:59;;;;;;;6.10;4.65;;;5.90;61.10;;;;;;5099621;28;20040;-67
2021/03/22 03:19:25;;;;;;;6.13;4.22;;;5.90;61.10;;;;;;5112526;28;20046;-68
2021/03/22 03:21:50;;;;;;;5.00;4.38;;;5.90;61.10;;;;;;5112866;28;20035;-69
2021/03/22 03:24:16;;;;;;;5.38;4.47;;;5.90;61.00;;;;;;5095424;28;20123;-68
2021/03/22 03:26:42;;;;;;;4.97;4.47;;;5.90;61.10;;;;;;5107971;28;20044;-69
2021/03/22 03:29:08;;;;;;;5.63;4.32;;;5.90;61.10;;;;;;5102409;28;20173;-69
2021/03/22 03:31:35;;;;;;;5.55;4.65;;;5.90;61.10;;;;;;5093469;28;20046;-68
2021/03/22 03:34:02;;;;;;;4.68;4.28;;;5.90;60.90;;;;;;5075797;28;20417;-68
2021/03/22 03:36:28;;;;;;;5.55;4.32;;;5.90;60.90;;;;;;5093338;28;20130;-69
2021/03/22 03:38:54;;;;;;;4.60;4.20;;;5.90;60.80;;;;;;5092989;28;20032;-69
2021/03/22 03:41:20;;;;;;;4.75;4.25;;;6.00;60.80;;;;;;5092425;28;20380;-69
2021/03/22 03:43:46;;;;;;;4.80;4.30;;;5.90;60.80;;;;;;5092794;28;20039;-67
2021/03/22 03:46:12;;;;;;;5.40;4.80;;;6.00;60.80;;;;;;5093396;28;20054;-68
2021/03/22 03:48:38;;;;;;;5.65;4.70;;;5.90;60.70;;;;;;5093040;28;20127;-68
2021/03/22 03:51:04;;;;;;;5.10;4.22;;;6.00;60.70;;;;;;5093065;28;20069;-67
2021/03/22 03:53:30;;;;;;;5.20;4.65;;;5.90;60.80;;;;;;5074912;28;20047;-67
2021/03/22 03:55:58;;;;;;;5.18;4.60;;;5.90;60.80;;;;;;5093043;28;20028;-67
2021/03/22 03:58:24;;;;;;;4.75;4.22;;;5.90;60.60;;;;;;5092935;28;20059;-67
2021/03/22 04:00:51;;;;;;;6.05;4.57;;;5.90;60.60;;;;;;5108731;28;20028;-69
2021/03/22 04:03:23;;;;;;;5.75;4.75;;;6.00;60.60;;;;;;5092978;28;20036;-66
2021/03/22 04:05:58;;;;;;;5.95;5.10;;;6.00;60.60;;;;;;5074708;28;20117;-67
2021/03/22 04:08:26;;;;;;;5.47;4.97;;;6.00;60.50;;;;;;5100502;28;20066;-69
2021/03/22 04:10:52;;;;;;;5.43;4.70;;;6.00;60.50;;;;;;5108803;27;20401;-65
2021/03/22 04:13:19;;;;;;;5.65;4.25;;;6.00;60.60;;;;;;5096561;28;20117;-67
2021/03/22 04:15:45;;;;;;;5.40;4.40;;;6.00;60.60;;;;;;5093120;28;20492;-66
2021/03/22 04:18:13;;;;;;;4.55;4.15;;;6.00;60.50;;;;;;5074554;28;20457;-65
2021/03/22 04:20:38;;;;;;;4.72;4.00;;;6.00;66.90;;;;;;5092928;28;20125;-67
2021/03/22 04:23:04;;;;;;;4.65;4.25;;;6.00;65.30;;;;;;5101584;28;20518;-68
2021/03/22 04:25:30;;;;;;;4.43;3.90;;;6.00;64.20;;;;;;5100833;28;20043;-68
2021/03/22 04:27:56;;;;;;;4.28;3.88;;;5.80;64.50;;;;;;5097661;28;20040;-70
2021/03/22 04:30:23;;;;;;;5.13;4.55;;;5.70;65.00;;;;;;5101677;28;20482;-69
2021/03/22 04:32:50;;;;;;;5.13;4.07;;;5.60;65.30;;;;;;5092874;28;20043;-68
2021/03/22 04:35:19;;;;;;;4.97;4.32;;;5.50;65.80;;;;;;5092596;28;20035;-66
2021/03/22 04:37:45;;;;;;;5.35;4.82;;;5.50;66.20;;;;;;5092166;28;20115;-65
2021/03/22 04:40:12;;;;;;;4.68;3.88;;;5.50;66.00;;;;;;5092232;28;20116;-63
2021/03/22 04:42:38;;;;;;;5.85;4.10;;;5.60;66.60;;;;;;5079876;28;20043;-63
2021/03/22 04:45:06;;;;;;;9.77;4.38;;;5.80;66.70;;;;;;5096090;28;20043;-65
2021/03/22 04:47:31;;;;;;;6.90;4.53;;;5.90;66.20;;;;;;5081920;28;20093;-64
2021/03/22 04:49:57;;;;;;;5.75;4.15;;;6.00;66.40;;;;;;5110368;28;20031;-63
2021/03/22 04:52:23;;;;;;;5.22;3.75;;;6.20;66.50;;;;;;5114522;28;20437;-65
2021/03/22 04:54:49;;;;;;;4.38;3.90;;;6.20;66.60;;;;;;5115902;28;20070;-64
2021/03/22 04:57:29;;;;;;;5.32;4.60;;;6.20;66.40;;;;;;5096290;28;20040;-63
2021/03/22 04:59:55;;;;;;;4.88;3.97;;;6.30;66.80;;;;;;5096234;28;20526;-64
2021/03/22 05:02:21;;;;;;;4.10;3.70;;;6.30;67.20;;;;;;5095879;28;20465;-64
2021/03/22 05:04:49;;;;;;;4.97;3.40;;;6.20;66.60;;;;;;5096059;28;20043;-65
2021/03/22 05:07:17;;;;;;;3.88;3.47;;;6.20;66.10;;;;;;5095586;28;20043;-64
2021/03/22 05:09:43;;;;;;;4.47;3.65;;;6.30;65.80;;;;;;5112420;28;20429;-66
2021/03/22 05:12:11;;;;;;;4.80;3.95;;;6.30;65.50;;;;;;5110922;28;20078;-71
2021/03/22 05:14:37;;;;;;;4.47;3.80;;;6.30;65.40;;;;;;5111467;28;20032;-63
2021/03/22 05:17:04;;;;;;;5.07;3.60;;;6.30;65.50;;;;;;5107409;28;20115;-62
2021/03/22 05:19:30;;;;;;;5.18;3.75;;;6.30;65.20;;;;;;5100099;28;20040;-65
2021/03/22 05:21:57;;;;;;;4.82;3.85;;;6.30;65.10;;;;;;5095725;28;20048;-64
2021/03/22 05:24:24;;;;;;;3.70;3.20;;;6.30;64.90;;;;;;5095212;28;20036;-65
2021/03/22 05:26:50;;;;;;;4.25;3.80;;;6.30;64.80;;;;;;5079940;28;20416;-64
2021/03/22 05:29:23;;;;;;;4.88;4.00;;;6.30;65.00;;;;;;5100546;28;20510;-72
2021/03/22 05:31:50;;;;;;;6.88;4.07;;;6.30;65.10;;;;;;5104336;28;20071;-74
2021/03/22 05:34:17;;;;;;;4.40;4.00;;;6.40;65.30;;;;;;5097759;28;20384;-74
2021/03/22 05:36:43;;;;;;;5.10;4.05;;;6.40;66.30;;;;;;5106141;28;20372;-74
2021/03/22 05:39:09;;;;;;;4.72;3.63;;;6.50;66.40;;;;;;5098589;28;20040;-74
2021/03/22 05:41:54;;;;;;;4.03;3.63;;;6.60;66.50;;;;;;5088512;28;20039;-74
2021/03/22 05:44:38;;;;;;;5.05;3.65;;;6.60;67.10;;;;;;5095473;28;20081;-69
2021/03/22 05:48:01;;;;;;;4.03;3.63;;;6.70;67.40;;;;;;5077115;28;20426;-71
2021/03/22 05:50:35;;;;;;;6.50;5.10;;;6.80;67.80;;;;;;5013075;28;20037;-71
2021/03/22 05:53:04;;;;;;;4.93;4.35;;;7.00;68.10;;;;;;5013111;28;20045;-72
2021/03/22 05:55:52;;;;;;;5.55;4.45;;;7.10;67.80;;;;;;5057766;28;20139;-72
2021/03/22 05:58:34;;;;;;;4.43;3.90;;;7.30;67.30;;;;;;5098371;27;20047;-74
2021/03/22 06:01:28;;;;;;;6.65;4.35;;;7.50;66.90;;;;;;5066897;28;20054;-72
2021/03/22 06:04:22;;;;;;;6.93;4.30;;;7.80;65.90;;;;;;5090510;27;20051;-75
2021/03/22 06:06:49;;;;;;;4.78;3.70;;;8.10;64.90;;;;;;5103887;28;20746;-75
2021/03/22 06:09:22;;;;;;;5.63;3.80;;;8.30;63.70;;;;;;5094940;28;20036;-72
2021/03/22 06:12:19;;;;;;;4.65;3.63;;;8.40;63.10;;;;;;5095088;28;20452;-74
2021/03/22 06:15:20;;;;;;;4.10;3.15;;;8.50;62.60;;;;;;5095079;28;20488;-76
2021/03/22 06:18:02;;;;;;;4.70;3.53;;;8.50;61.80;;;;;;5101203;27;20031;-72
2021/03/22 06:20:35;;;;;;;3.72;3.30;;;8.60;61.90;;;;;;5123611;27;20043;-70
2021/03/22 06:23:06;;;;;;;6.05;4.00;;;8.90;61.10;;;;;;5067333;28;20032;-72
2021/03/22 06:25:34;;;;;;;7.10;4.60;;;9.10;60.40;;;;;;5098254;27;20047;-72
2021/03/22 06:28:18;;;;;;;4.90;3.75;;;9.20;59.40;;;;;;5099715;28;20047;-72
2021/03/22 06:31:11;;;;;;;5.03;3.45;;;9.30;58.80;;;;;;5093132;28;20492;-73
2021/03/22 06:33:42;;;;;;;3.67;2.90;;;9.30;58.60;;;;;;5092760;28;20496;-74
2021/03/22 06:36:12;;;;;;;5.32;3.50;;;9.20;58.40;;;;;;5094002;28;20177;-76
2021/03/22 06:38:38;;;;;;;4.60;3.92;;;9.30;58.20;;;;;;5094049;28;20035;-73
2021/03/22 06:41:27;;;;;;;4.22;2.92;;;9.40;57.80;;;;;;5094417;28;20484;-72
2021/03/22 06:43:55;;;;;;;3.88;3.17;;;9.40;57.50;;;;;;5084774;28;20047;-73
2021/03/22 06:46:21;;;;;;;3.97;3.13;;;9.40;57.30;;;;;;5093768;28;20062;-72
2021/03/22 06:49:00;;;;;;;5.20;3.40;;;9.40;57.00;;;;;;5093960;28;20538;-73
2021/03/22 06:51:26;;;;;;;4.85;3.70;;;9.40;57.20;;;;;;5094077;28;20032;-73
2021/03/22 06:53:58;;;;;;;3.72;2.95;;;9.40;56.90;;;;;;5093788;28;20042;-73
2021/03/22 06:56:29;;;;;;;3.60;2.83;;;9.30;56.90;;;;;;5093950;28;20032;-73
2021/03/22 06:59:13;;;;;;;4.35;3.30;;;9.20;56.80;;;;;;5094256;28;20114;-75
2021/03/22 07:01:42;;;;;;;2.88;2.58;;;9.00;57.40;;;;;;5094099;28;20024;-73
2021/03/22 07:04:17;;;;;;;5.10;3.45;;;9.00;57.60;;;;;;5093513;28;20500;-73
2021/03/22 07:06:43;;;;;;;6.18;3.65;;;9.10;57.30;;;;;;5093361;28;20408;-73
2021/03/22 07:09:32;;;;;;;3.83;3.17;;;9.30;57.20;;;;;;5093766;28;20051;-73
2021/03/22 07:11:58;;;;;;;3.63;2.90;;;9.20;57.00;;;;;;5075717;28;20373;-75
2021/03/22 07:14:27;;;;;;;3.58;3.28;;;9.20;57.10;;;;;;5075389;28;20044;-74
2021/03/22 07:17:17;;;;;;;5.72;3.72;;;9.20;57.40;;;;;;5093456;28;20407;-74
2021/03/22 07:20:04;;;;;;;3.67;3.22;;;9.30;57.00;;;;;;5093598;28;20488;-75
2021/03/22 07:22:30;;;;;;;3.70;2.72;;;9.20;56.80;;;;;;5093345;28;20500;-74
2021/03/22 07:25:26;;;;;;;5.00;3.28;;;9.20;56.80;;;;;;5093691;28;20580;-75
2021/03/22 07:28:01;;;;;;;4.72;2.58;;;9.40;56.70;;;;;;5093650;28;20036;-74
2021/03/22 07:30:49;;;;;;;3.77;2.60;;;9.50;56.20;;;;;;5075767;28;20047;-75
2021/03/22 07:33:35;;;;;;;4.13;2.95;;;9.50;56.10;;;;;;5093184;28;20634;-75
2021/03/22 07:36:07;;;;;;;4.95;2.90;;;9.50;56.10;;;;;;5092885;28;20496;-76
2021/03/22 07:38:46;;;;;;;3.70;3.05;;;9.50;55.70;;;;;;5093092;28;20514;-73
2021/03/22 07:41:46;;;;;;;3.95;2.80;;;9.60;55.60;;;;;;5075918;28;20131;-73
2021/03/22 07:44:12;;;;;;;5.10;3.63;;;9.60;55.40;;;;;;5093973;28;20090;-74
2021/03/22 07:46:53;;;;;;;3.63;2.83;;;9.50;55.70;;;;;;5074946;28;20043;-75
2021/03/22 07:49:56;;;;;;;3.90;2.60;;;9.50;56.00;;;;;;5093587;28;20042;-73
2021/03/22 07:52:40;;;;;;;3.42;2.75;;;9.30;56.30;;;;;;5093302;28;20028;-74
2021/03/22 07:55:24;;;;;;;4.45;2.47;;;9.40;56.40;;;;;;5092773;28;20492;-73
2021/03/22 07:58:03;;;;;;;3.13;2.22;;;9.30;56.60;;;;;;5092675;28;20404;-72
2021/03/22 08:00:48;;;;;;;3.70;2.47;;;9.20;56.60;;;;;;5093378;28;20043;-72
2021/03/22 08:03:24;;;;;;;2.17;1.98;;;9.20;56.40;;;;;;5093211;28;20499;-73
2021/03/22 08:06:13;;;;;;;6.28;2.58;;;9.20;56.40;;;;;;5093110;28;20053;-72
2021/03/22 08:09:01;;;;;;;2.65;2.00;;;9.20;56.20;;;;;;5074709;28;20071;-73
2021/03/22 08:11:51;;;;;;;5.28;2.63;;;9.20;56.30;;;;;;5092883;28;20036;-73
2021/03/22 08:14:17;;;;;;;2.38;2.00;;;9.20;56.30;;;;;;5092831;28;20040;-74
2021/03/22 08:17:15;;;;;;;3.58;2.38;;;9.10;56.50;;;;;;5074818;28;20093;-72
2021/03/22 08:19:49;;;;;;;1.98;1.65;;;9.10;56.60;;;;;;5066496;28;20131;-71
2021/03/22 08:22:22;;;;;;;3.83;1.95;;;9.10;56.40;;;;;;5093058;28;20064;-74
2021/03/22 08:24:55;;;;;;;2.15;1.90;;;9.20;56.50;;;;;;5092503;28;20051;-70
2021/03/22 08:27:29;;;;;;;2.10;1.90;;;9.30;55.90;;;;;;5094053;28;20074;-72
2021/03/22 08:30:28;;;;;;;4.22;2.10;;;9.20;55.50;;;;;;5096729;28;20036;-74
2021/03/22 08:32:56;;;;;;;3.00;2.45;;;9.40;55.50;;;;;;5097099;28;20040;-73
2021/03/22 08:35:50;;;;;;;2.05;1.80;;;9.70;54.60;;;;;;5096731;28;20063;-72
2021/03/22 08:38:24;;;;;;;2.17;1.70;;;9.80;54.20;;;;;;5078403;28;20075;-71
2021/03/22 08:40:54;;;;;;;1.80;1.70;;;9.90;53.90;;;;;;5078482;28;20500;-70
2021/03/22 08:43:30;;;;;;;2.00;1.80;;;9.90;53.90;;;;;;5096367;28;20111;-71
2021/03/22 08:46:27;;;;;;;2.85;1.40;;;9.90;53.80;;;;;;5096516;28;20500;-69
2021/03/22 08:48:54;;;;;;;2.05;1.85;;;9.90;53.90;;;;;;5061550;28;20141;-70
2021/03/22 08:51:29;;;;;;;2.55;1.90;;;9.90;54.60;;;;;;5096736;28;20036;-71
2021/03/22 08:53:58;;;;;;;;;;;9.90;54.40;;;;;;5096608;28;20111;-70
2021/03/22 08:56:33;;;;;;;2.38;1.70;;;9.90;54.30;;;;;;5096362;28;20003;-70
2021/03/22 08:59:02;;;;;;;2.88;2.10;;;9.90;54.40;;;;;;5096277;28;20119;-71
2021/03/22 09:01:35;;;;;;;2.45;2.08;;;10.00;54.20;;;;;;5077920;28;20061;-71
2021/03/22 09:04:31;;;;;;;2.47;1.50;;;10.10;54.40;;;;;;5095545;28;20105;-71
2021/03/22 09:07:00;;;;;;;2.30;1.53;;;9.90;54.00;;;;;;5095790;28;20036;-71
2021/03/22 09:09:33;;;;;;;1.80;1.45;;;10.00;53.50;;;;;;5096140;28;20090;-70
2021/03/22 09:12:07;;;;;;;2.05;1.60;;;9.90;53.80;;;;;;5095614;28;20040;-71
2021/03/22 09:14:46;;;;;;;1.77;1.30;;;9.80;53.90;;;;;;5095740;28;20039;-70
2021/03/22 09:17:33;;;;;;;1.75;1.40;;;9.80;54.00;;;;;;5096172;28;20488;-70
2021/03/22 09:20:23;;;;;;;1.20;1.10;;;9.80;53.80;;;;;;5095854;28;20064;-71
2021/03/22 09:23:04;;;;;;;1.58;1.20;;;9.80;53.30;;;;;;5095768;28;20039;-70
2021/03/22 09:25:48;;;;;;;1.35;1.10;;;9.80;52.80;;;;;;5096084;28;20039;-70
2021/03/22 09:28:20;;;;;;;1.52;1.40;;;9.80;52.60;;;;;;5095717;28;20040;-72
2021/03/22 09:30:59;;;;;;;1.95;1.50;;;9.70;52.40;;;;;;5095393;28;20032;-71
2021/03/22 09:33:49;;;;;;;1.50;1.10;;;9.60;52.50;;;;;;5095682;28;20104;-71
2021/03/22 09:36:30;;;;;;;1.63;1.35;;;9.60;52.70;;;;;;5095761;28;20086;-72
2021/03/22 09:38:58;;;;;;;2.83;1.23;;;9.50;52.40;;;;;;5095437;28;20108;-71
2021/03/22 09:41:52;;;;;;;2.08;1.40;;;9.50;52.40;;;;;;5060663;28;20031;-71
2021/03/22 09:44:27;;;;;;;1.30;1.20;;;9.50;52.00;;;;;;5095112;28;20052;-70
2021/03/22 09:47:05;;;;;;;1.33;1.23;;;9.40;51.80;;;;;;5095209;28;20028;-73
2021/03/22 09:49:52;;;;;;;0.98;0.95;;;9.40;51.60;;;;;;5095338;28;20039;-71
2021/03/22 09:52:37;;;;;;;1.58;1.00;;;9.40;51.50;;;;;;5095029;28;20508;-72
2021/03/22 09:55:40;;;;;;;1.92;1.08;;;9.30;51.50;;;;;;5077107;28;20074;-72
2021/03/22 09:58:31;;;;;;;1.40;1.30;;;9.30;51.20;;;;;;5070061;28;20044;-73
2021/03/22 10:01:03;;;;;;;1.60;1.08;;;9.40;51.10;;;;;;5095139;28;20131;-72
2021/03/22 10:03:36;;;;;;;2.80;1.00;;;9.30;51.10;;;;;;5094919;28;20070;-73
2021/03/22 10:06:06;;;;;;;1.73;1.27;;;9.40;51.10;;;;;;5095122;28;20492;-72
2021/03/22 10:08:34;;;;;;;2.15;1.17;;;9.40;51.10;;;;;;5076556;28;20412;-71
2021/03/22 10:11:04;;;;;;;1.80;1.38;;;9.40;51.00;;;;;;5094717;28;20548;-70
2021/03/22 10:13:42;;;;;;;1.92;1.40;;;9.40;50.90;;;;;;5094741;28;20572;-71
2021/03/22 10:16:17;;;;;;;2.28;1.70;;;9.50;50.90;;;;;;5094571;28;20044;-68
2021/03/22 10:18:51;;;;;;;2.58;1.70;;;9.50;50.90;;;;;;5094702;28;20040;-71
2021/03/22 10:21:25;;;;;;;1.92;1.42;;;9.50;50.70;;;;;;5076565;28;20418;-72
2021/03/22 10:24:00;;;;;;;2.17;1.85;;;9.50;50.60;;;;;;5076643;28;20028;-70
2021/03/22 10:26:41;;;;;;;2.30;2.08;;;9.50;50.50;;;;;;5094560;28;20032;-72
2021/03/22 10:29:22;;;;;;;2.20;2.00;;;9.50;50.40;;;;;;5094640;28;20086;-73
2021/03/22 10:32:00;;;;;;;3.22;2.08;;;9.50;50.40;;;;;;5094566;28;20035;-72
2021/03/22 10:34:32;;;;;;;1.98;1.88;;;9.60;50.90;;;;;;5094478;28;20060;-72
2021/03/22 10:37:19;;;;;;;3.20;2.13;;;9.60;50.30;;;;;;5076155;28;20043;-71
2021/03/22 10:39:48;;;;;;;2.50;2.30;;;9.60;50.30;;;;;;5094221;28;20036;-71
2021/03/22 10:42:40;;;;;;;2.80;2.17;;;9.60;50.10;;;;;;5093877;28;20050;-72
2021/03/22 10:45:23;;;;;;;3.80;2.10;;;9.60;50.00;;;;;;5092257;28;20055;-71
2021/03/22 10:47:51;;;;;;;5.45;2.40;;;9.60;50.00;;;;;;5093860;28;20404;-71
2021/03/22 10:50:20;;;;;;;2.72;2.13;;;9.60;50.40;;;;;;5093223;28;20552;-71
2021/03/22 10:53:14;;;;;;;2.83;2.10;;;9.60;49.80;;;;;;5094041;28;20064;-72
2021/03/22 10:55:47;;;;;;;3.00;2.35;;;9.60;50.30;;;;;;5094268;28;20177;-72
2021/03/22 10:58:35;;;;;;;3.35;2.10;;;9.60;49.70;;;;;;5093879;28;20031;-72
2021/03/22 11:01:04;;;;;;;3.22;2.00;;;9.60;49.80;;;;;;5075617;28;20042;-69
2021/03/22 11:03:31;;;;;;;4.20;2.45;;;9.60;49.70;;;;;;5093571;28;20148;-70
2021/03/22 11:05:58;;;;;;;3.08;2.25;;;9.60;49.60;;;;;;5093635;28;20043;-71
2021/03/22 11:08:29;;;;;;;3.53;2.30;;;9.70;49.60;;;;;;5093692;28;20044;-72
2021/03/22 11:11:07;;;;;;;3.50;2.45;;;9.70;49.70;;;;;;5075655;28;20047;-72
2021/03/22 11:13:39;;;;;;;2.85;2.55;;;9.70;49.80;;;;;;5093718;28;20060;-70
2021/03/22 11:16:07;;;;;;;3.30;2.78;;;9.80;49.80;;;;;;5094091;28;20039;-70
2021/03/22 11:18:33;;;;;;;5.63;2.40;;;9.80;49.90;;;;;;5093277;28;20040;-70
2021/03/22 11:21:01;;;;;;;4.47;2.97;;;9.80;49.90;;;;;;5093182;28;20515;-69
2021/03/22 11:23:44;;;;;;;3.83;2.95;;;9.80;49.90;;;;;;5093470;28;20127;-70
2021/03/22 11:26:24;;;;;;;2.78;2.35;;;9.80;50.00;;;;;;5075697;28;20511;-70
2021/03/22 11:28:52;;;;;;;3.15;2.22;;;9.80;49.90;;;;;;5093424;28;20043;-72
2021/03/22 11:31:36;;;;;;;2.47;2.28;;;9.80;49.70;;;;;;5093429;28;20036;-73
2021/03/22 11:34:11;;;;;;;2.60;1.90;;;9.80;49.60;;;;;;5058638;28;20502;-72
2021/03/22 11:36:40;;;;;;;3.05;2.20;;;9.80;49.50;;;;;;5109224;28;20031;-71
2021/03/22 11:39:23;;;;;;;3.10;2.55;;;9.80;49.60;;;;;;5093410;28;20031;-72
2021/03/22 11:41:54;;;;;;;5.13;2.90;;;9.80;49.80;;;;;;5093150;28;20157;-72
2021/03/22 11:44:30;;;;;;;5.45;2.47;;;9.80;50.20;;;;;;5092759;28;20055;-71
2021/03/22 11:47:26;;;;;;;3.30;2.47;;;9.80;50.60;;;;;;5092862;28;20118;-72
2021/03/22 11:49:53;;;;;;;2.85;2.42;;;9.80;51.00;;;;;;5093060;28;20408;-72
2021/03/22 11:52:24;;;;;;;3.20;2.20;;;9.80;51.20;;;;;;5093010;28;20036;-72
2021/03/22 11:54:55;;;;;;;3.72;2.58;;;9.80;51.20;;;;;;5093162;28;20047;-71
2021/03/22 11:57:49;;;;;;;3.80;2.97;;;9.90;51.10;;;;;;5092939;28;20096;-71
2021/03/22 12:00:26;;;;;;;3.47;2.15;;;9.90;51.10;;;;;;5092981;28;20032;-72
2021/03/22 12:03:00;;;;;;;2.38;2.17;;;9.90;50.80;;;;;;5074484;28;20408;-70
2021/03/22 12:05:31;;;;;;;3.38;2.20;;;9.90;51.10;;;;;;5092826;28;20472;-72
2021/03/22 12:07:57;;;;;;;2.28;2.08;;;9.80;50.30;;;;;;5092533;28;20044;-72
2021/03/22 12:10:29;;;;;;;2.15;2.05;;;9.90;50.30;;;;;;5074920;28;20557;-72
2021/03/22 12:12:57;;;;;;;2.28;2.08;;;9.80;50.20;;;;;;5074539;28;20032;-73
2021/03/22 12:15:23;;;;;;;2.20;1.90;;;9.90;50.30;;;;;;5092903;28;20040;-74
2021/03/22 12:18:04;;;;;;;2.38;1.95;;;9.40;51.60;;;;;;5092392;28;20040;-72
2021/03/22 12:20:33;;;;;;;2.53;1.60;;;9.20;53.20;;;;;;5075264;28;20405;-72
2021/03/22 12:22:59;;;;;;;3.50;2.10;;;9.00;53.40;;;;;;5092730;28;20028;-73
2021/03/22 12:25:29;;;;;;;4.05;2.15;;;8.90;53.80;;;;;;5092528;28;20044;-72
2021/03/22 12:27:56;;;;;;;2.42;1.80;;;9.00;53.80;;;;;;5092313;28;20143;-73
2021/03/22 12:30:24;;;;;;;3.42;1.80;;;9.00;53.80;;;;;;5092478;28;20114;-73
2021/03/22 12:32:51;;;;;;;2.20;2.00;;;8.90;53.90;;;;;;5074398;28;20031;-72
2021/03/22 12:35:24;;;;;;;3.00;1.80;;;8.90;53.70;;;;;;5092536;28;20107;-74
2021/03/22 12:37:50;;;;;;;2.00;1.70;;;8.90;53.90;;;;;;5074525;28;20032;-73
2021/03/22 12:40:17;;;;;;;3.10;2.10;;;8.90;53.90;;;;;;5092636;28;20040;-71
2021/03/22 12:42:45;;;;;;;2.58;2.00;;;9.10;53.70;;;;;;5092398;28;20399;-73
2021/03/22 12:45:28;;;;;;;2.00;1.80;;;9.00;53.90;;;;;;5092497;28;20419;-73
2021/03/22 12:47:55;;;;;;;3.53;2.10;;;9.00;54.10;;;;;;5074105;28;20040;-74
2021/03/22 12:50:32;;;;;;;4.18;2.10;;;8.90;54.40;;;;;;5092346;28;20511;-72
2021/03/22 12:52:59;;;;;;;2.78;2.10;;;8.80;54.70;;;;;;5074102;28;20512;-73
2021/03/22 12:55:28;;;;;;;2.25;1.90;;;8.80;54.40;;;;;;5074393;28;20039;-72
2021/03/22 12:57:56;;;;;;;4.07;2.33;;;9.00;54.50;;;;;;5074120;28;20460;-73
2021/03/22 13:00:25;;;;;;;3.63;2.20;;;9.00;54.30;;;;;;5092052;28;20093;-73
2021/03/22 13:02:51;;;;;;;2.85;2.38;;;8.90;54.40;;;;;;5074197;28;20036;-72
2021/03/22 13:05:25;;;;;;;4.68;2.63;;;8.90;54.60;;;;;;5092163;28;20038;-73
2021/03/22 13:07:53;;;;;;;3.88;2.55;;;8.90;54.50;;;;;;5057152;28;20040;-72
2021/03/22 13:10:22;;;;;;;3.72;2.83;;;8.80;54.90;;;;;;5073801;28;20473;-72
2021/03/22 13:12:48;;;;;;;3.63;1.95;;;8.80;54.90;;;;;;5058185;28;20030;-72
2021/03/22 13:15:36;;;;;;;3.65;1.95;;;9.00;54.80;;;;;;5096245;28;20158;-73
2021/03/22 13:18:14;;;;;;;2.40;1.90;;;9.10;55.00;;;;;;5095554;28;20032;-72
2021/03/22 13:20:41;;;;;;;2.20;1.50;;;9.00;56.10;;;;;;5095758;28;20067;-72
2021/03/22 13:23:08;;;;;;;3.55;1.90;;;9.10;57.40;;;;;;5077645;28;20034;-71
2021/03/22 13:25:35;;;;;;;3.05;2.00;;;9.00;59.10;;;;;;5095898;28;20040;-72
2021/03/22 13:28:01;;;;;;;2.03;1.80;;;8.90;60.30;;;;;;5077637;28;20036;-72
2021/03/22 13:30:27;;;;;;;2.72;1.83;;;8.80;60.40;;;;;;5095776;28;20055;-73
2021/03/22 13:32:53;;;;;;;2.58;1.80;;;8.70;60.90;;;;;;5077371;28;20044;-72